Augusta Township, Michigan
Current Conditions -  °F | °C
As of 1:53 PM on Monday 20 Oct 2014 (Local Time) from KARB Reporting Station
Overcast Overcast  
Wind Chill: 56°   Ceiling: 2600
Heat Index: 56°   Visibility: 10mi
Dew Point: 47°   Wind: 0mph
Humidity: 72%   Direction: NA
Pressure: 29.78"   Gusts: NA
Location:  42.0828°N, 83.683°W
Report Text: KARB 201753Z AUTO 00000KT 10SM OVC026 13/08 A2978 RMK AO2 RAE14 SLP087 P0003 60006 T01330083 10133 20083 58018
Loading
Personal Weather Stations






























Interactive Weather Map New forecast layout! Learn more

10-Day Weather Forecast

Advertisements
Track Severe Weather on mobile